Time;durP1;ratioP1;P1;durP2;ratioP2;P2;SDS_P1;SDS_P2;PMS_P1;PMS_P2;Temp;Humidity;BMP_temperature;BMP_pressure;BME280_temperature;BME280_humidity;BME280_pressure;Samples;Min_cycle;Max_cycle;Signal;HPM_P1;HPM_P2
2022/02/18 00:01:00;;;;;;;2.85;0.82;;;;;;;;;;4956035;28;20027;-71
2022/02/18 00:03:27;;;;;;;5.13;1.27;;;;;;;;;;4970594;28;20053;-71
2022/02/18 00:05:54;;;;;;;4.63;1.00;;;;;;;;;;4972029;28;20419;-71
2022/02/18 00:08:20;;;;;;;7.22;0.90;;;;;;;;;;4971838;28;20037;-71
2022/02/18 00:10:47;;;;;;;3.08;0.88;;;;;;;;;;4971649;28;20019;-71
2022/02/18 00:13:13;;;;;;;3.50;1.00;;;;;;;;;;4955507;28;20028;-70
2022/02/18 00:15:40;;;;;;;4.43;1.35;;;;;;;;;;4951565;28;20023;-71
2022/02/18 00:18:06;;;;;;;5.05;1.17;;;;;;;;;;4951650;29;20082;-71
2022/02/18 00:20:33;;;;;;;4.15;1.15;;;;;;;;;;4952122;28;20110;-71
2022/02/18 00:23:03;;;;;;;3.63;0.90;;;;;;;;;;4952457;29;20035;-71
2022/02/18 00:25:30;;;;;;;6.15;1.30;;;;;;;;;;4952616;29;20038;-71
2022/02/18 00:27:56;;;;;;;2.63;0.98;;;;;;;;;;4951986;29;20196;-71
2022/02/18 00:30:22;;;;;;;2.25;0.90;;;;;;;;;;4951027;29;20027;-71
2022/02/18 00:32:48;;;;;;;6.15;1.27;;;;;;;;;;4951978;28;20159;-71
2022/02/18 00:35:19;;;;;;;5.13;1.45;;;;;;;;;;4953152;28;20050;-71
2022/02/18 00:37:46;;;;;;;2.08;0.80;;;;;;;;;;4952204;29;20494;-71
2022/02/18 00:40:13;;;;;;;4.63;1.05;;;;;;;;;;4950535;29;20028;-70
2022/02/18 00:42:39;;;;;;;4.15;0.98;;;;;;;;;;4950136;29;20070;-71
2022/02/18 00:45:05;;;;;;;5.75;1.00;;;;;;;;;;4951088;28;20028;-70
2022/02/18 00:47:31;;;;;;;3.45;0.90;;;;;;;;;;4954264;28;20031;-71
2022/02/18 00:49:58;;;;;;;7.50;1.45;;;;;;;;;;4969488;28;20239;-70
2022/02/18 00:52:24;;;;;;;5.18;1.10;;;;;;;;;;4970785;28;20027;-70
2022/02/18 00:54:50;;;;;;;5.82;1.08;;;;;;;;;;4970903;28;20023;-70
2022/02/18 00:57:16;;;;;;;3.50;0.80;;;;;;;;;;4969215;28;20102;-71
2022/02/18 00:59:43;;;;;;;1.15;0.68;;;;;;;;;;4971362;28;20027;-71
2022/02/18 01:02:09;;;;;;;2.35;0.88;;;;;;;;;;4969556;28;20041;-71
2022/02/18 01:04:37;;;;;;;5.65;1.27;;;;;;;;;;4969414;28;20037;-70
2022/02/18 01:07:04;;;;;;;3.85;1.10;;;;;;;;;;4970895;28;20023;-71
2022/02/18 01:09:30;;;;;;;2.22;0.90;;;;;;;;;;4970557;28;20162;-71
2022/02/18 01:11:56;;;;;;;5.28;1.40;;;;;;;;;;4956595;28;20035;-71
2022/02/18 01:14:22;;;;;;;4.20;1.02;;;;;;;;;;4964002;28;20037;-71
2022/02/18 01:16:48;;;;;;;2.45;0.93;;;;;;;;;;4967439;28;20035;-71
2022/02/18 01:19:14;;;;;;;4.70;1.08;;;;;;;;;;4952636;28;20039;-86
2022/02/18 01:21:41;;;;;;;5.10;1.20;;;;;;;;;;4952953;29;20369;-82
2022/02/18 01:24:07;;;;;;;1.50;0.80;;;;;;;;;;4952597;29;20514;-86
2022/02/18 01:26:33;;;;;;;3.08;0.82;;;;;;;;;;4953257;28;20027;-88
2022/02/18 01:29:00;;;;;;;3.80;1.50;;;;;;;;;;4952279;28;20023;-82
2022/02/18 01:31:26;;;;;;;6.85;1.10;;;;;;;;;;4953108;29;20067;-74
2022/02/18 01:33:53;;;;;;;6.90;1.10;;;;;;;;;;4951684;28;20030;-71
2022/02/18 01:36:20;;;;;;;3.03;0.80;;;;;;;;;;4951558;28;20498;-86
2022/02/18 01:38:46;;;;;;;5.18;1.00;;;;;;;;;;4953069;28;20392;-85
2022/02/18 01:41:13;;;;;;;5.10;1.20;;;;;;;;;;4972199;28;20092;-81
2022/02/18 01:43:47;;;;;;;2.85;1.10;;;;;;;;;;4971094;28;20045;-86
2022/02/18 01:46:14;;;;;;;2.60;1.00;;;;;;;;;;4972639;28;20022;-87
2022/02/18 01:48:40;;;;;;;4.40;1.20;;;;;;;;;;4971602;28;20022;-86
2022/02/18 01:51:06;;;;;;;4.55;0.85;;;;;;;;;;4971675;28;20030;-86
2022/02/18 01:53:32;;;;;;;4.32;1.02;;;;;;;;;;4968943;28;20027;-89
2022/02/18 01:55:59;;;;;;;4.60;1.02;;;;;;;;;;4952784;28;20038;-76
2022/02/18 01:58:26;;;;;;;4.68;1.00;;;;;;;;;;4953376;29;20031;-84
2022/02/18 02:00:52;;;;;;;2.55;0.90;;;;;;;;;;4968524;28;20182;-90
2022/02/18 02:03:22;;;;;;;3.65;1.10;;;;;;;;;;4972717;28;20037;-85
2022/02/18 02:05:48;;;;;;;4.00;1.40;;;;;;;;;;4972804;28;20051;-86
2022/02/18 02:08:14;;;;;;;2.67;1.27;;;;;;;;;;4971599;28;20782;-88
2022/02/18 02:10:44;;;;;;;4.55;1.10;;;;;;;;;;4972057;28;20029;-88
2022/02/18 02:13:10;;;;;;;3.20;1.10;;;;;;;;;;4972146;28;20046;-87
2022/02/18 02:15:37;;;;;;;2.90;1.55;;;;;;;;;;4971696;28;20031;-86
2022/02/18 02:18:03;;;;;;;1.63;0.77;;;;;;;;;;4971056;28;20081;-87
2022/02/18 02:20:29;;;;;;;3.38;1.05;;;;;;;;;;4971459;28;20027;-81
2022/02/18 02:22:56;;;;;;;2.20;0.90;;;;;;;;;;4971344;28;20483;-80
2022/02/18 02:25:22;;;;;;;4.05;1.02;;;;;;;;;;4960729;28;20039;-87
2022/02/18 02:27:48;;;;;;;4.55;1.13;;;;;;;;;;4971949;28;20019;-88
2022/02/18 02:30:15;;;;;;;3.10;0.90;;;;;;;;;;4971485;28;20023;-88
2022/02/18 02:32:41;;;;;;;5.30;1.58;;;;;;;;;;4961052;28;20034;-87
2022/02/18 02:35:08;;;;;;;1.75;0.85;;;;;;;;;;4952000;29;20034;-86
2022/02/18 02:37:34;;;;;;;4.80;1.58;;;;;;;;;;4950646;28;20129;-71
2022/02/18 02:40:00;;;;;;;2.90;1.10;;;;;;;;;;4954405;28;20383;-81
2022/02/18 02:42:26;;;;;;;5.18;1.27;;;;;;;;;;4964460;28;20031;-76
2022/02/18 02:44:52;;;;;;;5.13;1.30;;;;;;;;;;4962825;28;20103;-88
2022/02/18 02:47:19;;;;;;;2.80;1.00;;;;;;;;;;4951883;28;20051;-84
2022/02/18 02:49:45;;;;;;;6.10;1.17;;;;;;;;;;4945123;29;20098;-79
2022/02/18 02:52:11;;;;;;;2.53;1.10;;;;;;;;;;4949760;28;20113;-84
2022/02/18 02:54:38;;;;;;;4.53;1.20;;;;;;;;;;4959583;28;20038;-80
2022/02/18 02:57:04;;;;;;;3.53;0.80;;;;;;;;;;4945670;29;20026;-86
2022/02/18 02:59:32;;;;;;;4.28;1.10;;;;;;;;;;4944699;29;20038;-82
2022/02/18 03:01:58;;;;;;;3.25;1.73;;;;;;;;;;4945002;29;20106;-85
2022/02/18 03:04:24;;;;;;;4.63;1.27;;;;;;;;;;4946050;28;20035;-78
2022/02/18 03:06:50;;;;;;;5.85;1.23;;;;;;;;;;4954085;28;20110;-81
2022/02/18 03:09:16;;;;;;;3.13;1.13;;;;;;;;;;4963010;28;20043;-83
2022/02/18 03:11:42;;;;;;;3.58;1.13;;;;;;;;;;4948001;28;20031;-75
2022/02/18 03:14:09;;;;;;;2.75;0.98;;;;;;;;;;4943138;29;20050;-80
2022/02/18 03:16:35;;;;;;;3.47;1.13;;;;;;;;;;4943593;29;20035;-78
2022/02/18 03:19:01;;;;;;;1.95;0.82;;;;;;;;;;4945371;28;20047;-70
2022/02/18 03:21:28;;;;;;;6.03;1.13;;;;;;;;;;4943804;29;20094;-70
2022/02/18 03:23:54;;;;;;;3.72;1.10;;;;;;;;;;4956112;28;20042;-70
2022/02/18 03:26:20;;;;;;;3.65;0.93;;;;;;;;;;4958569;28;20038;-70
2022/02/18 03:28:46;;;;;;;4.03;0.90;;;;;;;;;;4944047;29;20516;-70
2022/02/18 03:31:12;;;;;;;2.95;1.00;;;;;;;;;;4944442;28;20047;-70
2022/02/18 03:33:39;;;;;;;5.25;1.20;;;;;;;;;;4944483;28;20035;-70
2022/02/18 03:36:06;;;;;;;2.55;1.00;;;;;;;;;;4942751;28;20030;-71
2022/02/18 03:38:32;;;;;;;6.20;1.98;;;;;;;;;;4964650;28;20030;-70
2022/02/18 03:40:58;;;;;;;2.88;1.10;;;;;;;;;;4982065;28;20026;-70
2022/02/18 03:43:24;;;;;;;6.30;1.23;;;;;;;;;;4982741;28;20069;-70
2022/02/18 03:45:50;;;;;;;3.53;1.02;;;;;;;;;;4982733;28;20023;-70
2022/02/18 03:48:16;;;;;;;4.93;1.10;;;;;;;;;;4983041;28;20030;-70
2022/02/18 03:50:43;;;;;;;7.03;1.40;;;;;;;;;;4975423;28;20089;-70
2022/02/18 03:53:10;;;;;;;2.85;1.00;;;;;;;;;;4961422;28;20038;-69
2022/02/18 03:55:36;;;;;;;3.92;1.02;;;;;;;;;;4963392;28;20124;-70
2022/02/18 03:58:02;;;;;;;4.88;1.10;;;;;;;;;;4962398;28;20031;-70
2022/02/18 04:00:29;;;;;;;2.80;0.90;;;;;;;;;;4961377;28;20109;-70
2022/02/18 04:02:55;;;;;;;5.75;1.10;;;;;;;;;;4958722;28;20045;-70
2022/02/18 04:05:22;;;;;;;2.63;0.88;;;;;;;;;;4941519;29;20037;-70
2022/02/18 04:07:48;;;;;;;2.90;1.13;;;;;;;;;;4941843;29;20342;-70
2022/02/18 04:10:14;;;;;;;7.78;1.40;;;;;;;;;;4941869;28;20037;-70
2022/02/18 04:12:41;;;;;;;2.20;1.00;;;;;;;;;;4940035;28;20045;-71
2022/02/18 04:15:07;;;;;;;3.95;1.70;;;;;;;;;;4939969;28;20395;-70
2022/02/18 04:17:33;;;;;;;3.63;1.73;;;;;;;;;;4941119;28;20110;-70
2022/02/18 04:20:00;;;;;;;6.20;2.53;;;;;;;;;;4944039;28;20031;-70
2022/02/18 04:22:26;;;;;;;6.63;2.33;;;;;;;;;;4964367;28;20688;-70
2022/02/18 04:24:52;;;;;;;5.57;2.05;;;;;;;;;;4963904;28;20505;-70
2022/02/18 04:27:19;;;;;;;5.65;1.88;;;;;;;;;;4964012;28;20030;-70
2022/02/18 04:29:45;;;;;;;5.30;1.98;;;;;;;;;;4962787;28;20023;-79
2022/02/18 04:32:12;;;;;;;5.70;2.22;;;;;;;;;;4963727;28;20041;-70
2022/02/18 04:34:38;;;;;;;9.07;2.47;;;;;;;;;;4964664;28;20030;-70
2022/02/18 04:37:05;;;;;;;7.00;3.15;;;;;;;;;;4963789;28;20392;-70
2022/02/18 04:39:31;;;;;;;6.55;2.97;;;;;;;;;;4981428;28;20030;-70
2022/02/18 04:41:57;;;;;;;8.85;3.33;;;;;;;;;;4981080;28;20028;-70
2022/02/18 04:44:23;;;;;;;6.32;2.78;;;;;;;;;;4983055;28;20043;-70
2022/02/18 04:46:49;;;;;;;6.15;2.97;;;;;;;;;;4982751;28;20497;-70
2022/02/18 04:49:15;;;;;;;5.93;3.33;;;;;;;;;;4957691;28;20054;-70
2022/02/18 04:51:42;;;;;;;6.90;2.90;;;;;;;;;;4944204;28;20043;-70
2022/02/18 04:54:08;;;;;;;7.43;2.53;;;;;;;;;;4945097;28;20101;-70
2022/02/18 04:56:35;;;;;;;4.32;2.42;;;;;;;;;;4943633;29;20035;-70
2022/02/18 04:59:01;;;;;;;4.85;1.75;;;;;;;;;;4944578;29;20038;-70
2022/02/18 05:01:27;;;;;;;7.70;2.17;;;;;;;;;;4944408;29;20032;-70
2022/02/18 05:03:54;;;;;;;4.78;1.50;;;;;;;;;;4944608;29;20116;-72
2022/02/18 05:06:20;;;;;;;4.90;2.22;;;;;;;;;;4943984;29;20034;-70
2022/02/18 05:08:46;;;;;;;3.88;2.08;;;;;;;;;;4944604;28;20067;-73
2022/02/18 05:11:12;;;;;;;7.00;1.83;;;;;;;;;;4942966;29;20034;-70
2022/02/18 05:13:39;;;;;;;4.70;1.63;;;;;;;;;;4941879;28;20067;-71
2022/02/18 05:16:05;;;;;;;3.30;2.00;;;;;;;;;;4946235;28;20786;-70
2022/02/18 05:18:32;;;;;;;5.78;2.08;;;;;;;;;;4963205;28;20054;-70
2022/02/18 05:20:58;;;;;;;5.78;2.75;;;;;;;;;;4963206;28;20053;-70
2022/02/18 05:23:24;;;;;;;5.10;1.83;;;;;;;;;;4961620;28;20094;-70
2022/02/18 05:25:50;;;;;;;4.13;1.80;;;;;;;;;;4963243;28;20030;-70
2022/02/18 05:28:16;;;;;;;5.93;1.58;;;;;;;;;;4962911;28;20105;-70
2022/02/18 05:30:43;;;;;;;7.10;1.40;;;;;;;;;;4962325;28;20019;-71
2022/02/18 05:33:12;;;;;;;5.35;2.22;;;;;;;;;;4961281;28;20376;-70
2022/02/18 05:35:38;;;;;;;4.82;1.30;;;;;;;;;;4963395;28;20410;-70
2022/02/18 05:38:04;;;;;;;5.28;1.40;;;;;;;;;;4969493;28;20038;-70
2022/02/18 05:40:31;;;;;;;3.60;1.35;;;;;;;;;;4980737;28;20030;-70
2022/02/18 05:42:57;;;;;;;4.32;1.30;;;;;;;;;;4982096;28;20082;-71
2022/02/18 05:45:23;;;;;;;5.28;1.60;;;;;;;;;;4982576;28;20045;-70
2022/02/18 05:47:49;;;;;;;2.78;1.20;;;;;;;;;;4972517;28;20033;-70
2022/02/18 05:50:15;;;;;;;3.47;1.33;;;;;;;;;;4962451;28;20222;-70
2022/02/18 05:52:43;;;;;;;4.18;1.75;;;;;;;;;;4962710;28;20029;-70
2022/02/18 05:55:10;;;;;;;4.72;1.42;;;;;;;;;;4962897;28;20034;-70
2022/02/18 05:57:36;;;;;;;3.58;1.35;;;;;;;;;;4961188;28;20034;-70
2022/02/18 06:00:07;;;;;;;7.70;1.60;;;;;;;;;;4963141;28;20092;-70
2022/02/18 06:02:33;;;;;;;4.47;1.20;;;;;;;;;;4962431;28;20117;-70
2022/02/18 06:05:01;;;;;;;3.85;1.77;;;;;;;;;;4962136;28;20521;-70
2022/02/18 06:07:28;;;;;;;8.75;3.03;;;;;;;;;;4955899;28;20495;-70
2022/02/18 06:09:55;;;;;;;5.18;1.50;;;;;;;;;;4943075;28;20027;-70
2022/02/18 06:12:21;;;;;;;3.97;1.30;;;;;;;;;;4939988;29;20031;-70
2022/02/18 06:14:50;;;;;;;3.53;0.95;;;;;;;;;;4942903;29;20046;-70
2022/02/18 06:17:20;;;;;;;3.85;0.93;;;;;;;;;;4945208;28;20070;-70
2022/02/18 06:19:46;;;;;;;2.95;0.90;;;;;;;;;;4962380;28;20031;-70
2022/02/18 06:22:12;;;;;;;6.82;1.42;;;;;;;;;;4961274;28;20403;-70
2022/02/18 06:24:39;;;;;;;4.63;1.42;;;;;;;;;;4961173;28;20058;-70
2022/02/18 06:27:06;;;;;;;4.03;1.80;;;;;;;;;;4961797;28;20027;-83
2022/02/18 06:29:32;;;;;;;2.80;1.60;;;;;;;;;;4961691;28;20026;-70
2022/02/18 06:31:58;;;;;;;4.35;2.05;;;;;;;;;;4949225;28;20030;-70
2022/02/18 06:34:25;;;;;;;4.95;2.67;;;;;;;;;;4945263;29;20106;-69
2022/02/18 06:36:51;;;;;;;5.90;2.13;;;;;;;;;;4944647;29;20045;-69
2022/02/18 06:39:21;;;;;;;6.68;2.25;;;;;;;;;;4943844;29;20031;-70
2022/02/18 06:41:47;;;;;;;8.02;2.53;;;;;;;;;;4944724;29;20035;-70
2022/02/18 06:44:14;;;;;;;8.68;2.58;;;;;;;;;;4944119;28;20755;-69
2022/02/18 06:46:40;;;;;;;4.78;2.20;;;;;;;;;;4943563;28;20023;-69
2022/02/18 06:49:06;;;;;;;3.08;1.70;;;;;;;;;;4944352;28;20039;-70
2022/02/18 06:51:32;;;;;;;3.78;1.70;;;;;;;;;;4944658;28;20035;-80
2022/02/18 06:53:59;;;;;;;3.85;1.75;;;;;;;;;;4944383;28;20467;-76
2022/02/18 06:56:25;;;;;;;2.88;1.63;;;;;;;;;;4944536;29;20027;-70
2022/02/18 06:58:52;;;;;;;3.63;1.90;;;;;;;;;;4943333;29;20046;-69
2022/02/18 07:01:19;;;;;;;5.88;3.40;;;;;;;;;;4944489;28;20031;-70
2022/02/18 07:03:45;;;;;;;5.63;4.47;;;;;;;;;;4944494;28;20118;-78
2022/02/18 07:06:11;;;;;;;10.75;8.38;;;;;;;;;;4957030;28;20038;-70
2022/02/18 07:08:37;;;;;;;11.68;8.75;;;;;;;;;;4948891;28;20043;-70
2022/02/18 07:11:03;;;;;;;10.15;7.75;;;;;;;;;;4950560;28;20019;-71
2022/02/18 07:13:30;;;;;;;13.00;9.23;;;;;;;;;;4945076;28;20046;-71
2022/02/18 07:15:56;;;;;;;13.43;9.10;;;;;;;;;;4940275;29;20467;-69
2022/02/18 07:18:23;;;;;;;11.00;5.53;;;;;;;;;;4943087;28;20050;-73
2022/02/18 07:20:49;;;;;;;12.18;4.18;;;;;;;;;;4952495;28;20062;-70
2022/02/18 07:23:16;;;;;;;7.30;3.58;;;;;;;;;;4944422;29;20042;-70
2022/02/18 07:25:42;;;;;;;10.98;4.75;;;;;;;;;;4944106;28;20475;-70
2022/02/18 07:28:08;;;;;;;9.90;4.75;;;;;;;;;;4943931;28;20035;-70
2022/02/18 07:30:34;;;;;;;7.72;4.15;;;;;;;;;;4944126;28;20023;-70
2022/02/18 07:33:00;;;;;;;9.43;4.15;;;;;;;;;;4944381;28;20090;-70
2022/02/18 07:35:32;;;;;;;11.40;4.75;;;;;;;;;;4942479;29;20058;-70
2022/02/18 07:37:59;;;;;;;8.68;5.30;;;;;;;;;;4944040;29;20090;-70
2022/02/18 07:40:25;;;;;;;10.57;5.68;;;;;;;;;;4944610;28;20027;-74
2022/02/18 07:42:51;;;;;;;6.60;4.38;;;;;;;;;;4942877;29;20506;-70
2022/02/18 07:45:17;;;;;;;8.57;4.70;;;;;;;;;;4944115;29;20042;-70
2022/02/18 07:47:44;;;;;;;9.85;4.95;;;;;;;;;;4943893;29;20039;-70
2022/02/18 07:50:10;;;;;;;12.98;6.38;;;;;;;;;;4942655;28;20031;-70
2022/02/18 07:52:37;;;;;;;5.47;2.47;;;;;;;;;;4944288;29;20035;-70
2022/02/18 07:55:04;;;;;;;3.53;1.48;;;;;;;;;;4944608;28;20023;-70
2022/02/18 07:57:30;;;;;;;4.40;1.92;;;;;;;;;;4947762;28;20027;-70
2022/02/18 07:59:56;;;;;;;4.20;1.38;;;;;;;;;;4947266;28;20510;-70
2022/02/18 08:02:22;;;;;;;2.35;1.08;;;;;;;;;;4947498;29;20735;-70
2022/02/18 08:04:48;;;;;;;7.53;2.97;;;;;;;;;;4945866;29;20035;-70
2022/02/18 08:07:14;;;;;;;8.13;3.30;;;;;;;;;;4948019;29;20122;-70
2022/02/18 08:09:41;;;;;;;4.70;1.73;;;;;;;;;;4947821;29;20027;-70
2022/02/18 08:12:07;;;;;;;6.07;2.65;;;;;;;;;;4947471;28;20038;-70
2022/02/18 08:14:33;;;;;;;5.50;3.53;;;;;;;;;;4945993;29;20027;-70
2022/02/18 08:16:59;;;;;;;6.82;2.53;;;;;;;;;;4947748;28;20093;-70
2022/02/18 08:19:25;;;;;;;4.68;2.78;;;;;;;;;;4947505;28;20542;-70
2022/02/18 08:21:52;;;;;;;4.47;3.15;;;;;;;;;;4947221;28;20075;-71
2022/02/18 08:24:19;;;;;;;7.80;5.10;;;;;;;;;;4947411;29;20357;-70
2022/02/18 08:26:46;;;;;;;5.90;2.22;;;;;;;;;;4947573;28;20099;-75
2022/02/18 08:29:12;;;;;;;3.83;1.33;;;;;;;;;;4946038;28;20115;-70
2022/02/18 08:31:38;;;;;;;2.65;1.15;;;;;;;;;;4947446;29;20069;-70
2022/02/18 08:34:04;;;;;;;3.40;1.02;;;;;;;;;;4947228;28;20031;-70
2022/02/18 08:36:32;;;;;;;2.40;1.20;;;;;;;;;;4946993;28;20039;-70
2022/02/18 08:38:58;;;;;;;2.70;1.30;;;;;;;;;;4946572;29;20106;-70
2022/02/18 08:41:24;;;;;;;4.00;1.13;;;;;;;;;;4946904;28;20051;-70
2022/02/18 08:43:50;;;;;;;3.42;1.52;;;;;;;;;;4945579;28;20035;-71
2022/02/18 08:46:17;;;;;;;4.22;1.45;;;;;;;;;;4945741;28;20043;-70
2022/02/18 08:48:44;;;;;;;6.68;1.50;;;;;;;;;;4947502;29;20027;-70
2022/02/18 08:51:10;;;;;;;2.65;0.70;;;;;;;;;;4946676;29;20027;-71
2022/02/18 08:53:38;;;;;;;2.67;1.65;;;;;;;;;;4945145;29;20051;-70
2022/02/18 08:56:04;;;;;;;5.53;2.88;;;;;;;;;;4946732;28;20028;-74
2022/02/18 08:58:30;;;;;;;8.68;2.00;;;;;;;;;;4946517;29;20027;-70
2022/02/18 09:00:56;;;;;;;4.68;1.48;;;;;;;;;;4947091;29;20027;-70
2022/02/18 09:03:22;;;;;;;4.07;1.42;;;;;;;;;;4946856;29;20042;-70
2022/02/18 09:05:49;;;;;;;7.95;2.00;;;;;;;;;;4944844;28;20551;-70
2022/02/18 09:08:15;;;;;;;3.25;1.58;;;;;;;;;;4946622;29;20046;-70
2022/02/18 09:10:49;;;;;;;2.35;1.40;;;;;;;;;;4946534;29;20118;-70
2022/02/18 09:13:15;;;;;;;4.28;1.63;;;;;;;;;;4946563;28;20023;-70
2022/02/18 09:15:41;;;;;;;3.55;1.50;;;;;;;;;;4946464;29;20020;-70
2022/02/18 09:18:07;;;;;;;4.20;2.17;;;;;;;;;;4944340;28;20089;-69
2022/02/18 09:20:35;;;;;;;6.45;2.40;;;;;;;;;;4962688;28;20033;-70
2022/02/18 09:23:01;;;;;;;6.18;1.75;;;;;;;;;;4964785;28;20042;-70
2022/02/18 09:25:27;;;;;;;5.30;1.67;;;;;;;;;;4964426;28;20039;-70
2022/02/18 09:27:53;;;;;;;5.88;1.20;;;;;;;;;;4965384;28;20035;-70
2022/02/18 09:30:19;;;;;;;5.72;1.58;;;;;;;;;;4965185;28;20046;-70
2022/02/18 09:32:45;;;;;;;8.07;1.95;;;;;;;;;;4965618;28;20026;-71
2022/02/18 09:35:12;;;;;;;6.90;2.28;;;;;;;;;;4965472;28;20035;-72
2022/02/18 09:37:38;;;;;;;3.90;1.77;;;;;;;;;;4965018;28;20031;-70
2022/02/18 09:40:07;;;;;;;5.72;1.90;;;;;;;;;;4964612;28;20062;-71
2022/02/18 09:42:34;;;;;;;3.28;1.80;;;;;;;;;;4964987;28;20031;-70
2022/02/18 09:45:00;;;;;;;7.75;2.15;;;;;;;;;;4965234;28;20034;-70
2022/02/18 09:47:27;;;;;;;5.00;1.73;;;;;;;;;;4965555;28;20101;-71
2022/02/18 09:49:53;;;;;;;5.57;1.55;;;;;;;;;;4964902;28;20173;-70
2022/02/18 09:52:20;;;;;;;4.43;1.58;;;;;;;;;;4963507;28;20027;-70
2022/02/18 09:54:46;;;;;;;6.20;1.50;;;;;;;;;;4965435;28;20035;-70
2022/02/18 09:57:14;;;;;;;5.13;1.77;;;;;;;;;;4965580;28;20034;-70
2022/02/18 09:59:41;;;;;;;3.70;1.50;;;;;;;;;;4964904;28;20221;-70
2022/02/18 10:02:07;;;;;;;5.15;2.00;;;;;;;;;;4964819;28;20375;-71
2022/02/18 10:04:33;;;;;;;5.72;2.17;;;;;;;;;;4964539;28;20754;-70
2022/02/18 10:07:03;;;;;;;5.30;1.88;;;;;;;;;;4963207;28;20077;-76
2022/02/18 10:09:55;;;;;;;5.05;2.03;;;;;;;;;;4964677;28;20034;-71
2022/02/18 10:12:35;;;;;;;4.55;1.30;;;;;;;;;;4963551;28;20050;-71
2022/02/18 10:15:09;;;;;;;5.03;1.55;;;;;;;;;;4962442;28;20031;-70
2022/02/18 10:17:41;;;;;;;4.10;1.85;;;;;;;;;;4964128;28;20089;-72
2022/02/18 10:20:15;;;;;;;4.68;2.17;;;;;;;;;;4964119;28;20514;-70
2022/02/18 10:22:54;;;;;;;6.93;2.22;;;;;;;;;;4964553;28;20086;-70
2022/02/18 10:25:33;;;;;;;7.00;2.30;;;;;;;;;;4964643;28;20023;-70
2022/02/18 10:28:00;;;;;;;5.35;1.65;;;;;;;;;;4963522;28;20034;-71
2022/02/18 10:30:28;;;;;;;4.20;1.77;;;;;;;;;;4964214;28;20029;-70
2022/02/18 10:32:54;;;;;;;7.28;1.92;;;;;;;;;;4964457;28;20447;-71
2022/02/18 10:35:22;;;;;;;4.53;1.92;;;;;;;;;;4964334;28;20093;-70
2022/02/18 10:37:53;;;;;;;7.63;1.80;;;;;;;;;;4964457;28;20023;-70
2022/02/18 10:40:20;;;;;;;5.10;2.33;;;;;;;;;;4964313;28;20556;-70
2022/02/18 10:42:46;;;;;;;7.07;2.80;;;;;;;;;;4962669;28;20074;-70
2022/02/18 10:45:18;;;;;;;5.72;2.72;;;;;;;;;;4964407;28;20066;-71
2022/02/18 10:47:44;;;;;;;8.77;3.10;;;;;;;;;;4964079;28;20054;-73
2022/02/18 10:50:14;;;;;;;5.18;2.70;;;;;;;;;;4963543;28;20037;-74
2022/02/18 10:52:41;;;;;;;5.70;3.22;;;;;;;;;;4964097;28;20033;-70
2022/02/18 10:55:07;;;;;;;7.55;2.70;;;;;;;;;;4963808;28;20078;-69
2022/02/18 10:57:34;;;;;;;5.68;2.55;;;;;;;;;;4962737;28;20027;-69
2022/02/18 11:00:10;;;;;;;5.57;2.30;;;;;;;;;;4963944;28;20038;-69
2022/02/18 11:02:36;;;;;;;8.15;2.63;;;;;;;;;;4963486;28;20034;-69
2022/02/18 11:05:22;;;;;;;8.55;3.28;;;;;;;;;;4963783;28;20037;-69
2022/02/18 11:07:48;;;;;;;7.93;2.92;;;;;;;;;;4963849;28;20685;-69
2022/02/18 11:10:33;;;;;;;4.97;2.80;;;;;;;;;;4960825;28;20037;-69
2022/02/18 11:13:00;;;;;;;4.85;2.88;;;;;;;;;;4963608;28;20034;-70
2022/02/18 11:15:27;;;;;;;6.38;2.50;;;;;;;;;;4963530;28;20073;-69
2022/02/18 11:17:54;;;;;;;6.63;2.97;;;;;;;;;;4963664;28;20041;-69
2022/02/18 11:20:20;;;;;;;4.32;2.92;;;;;;;;;;4963443;28;20333;-70
2022/02/18 11:22:46;;;;;;;7.78;3.00;;;;;;;;;;4962085;28;20047;-69
2022/02/18 11:25:13;;;;;;;7.35;3.78;;;;;;;;;;4963580;28;20062;-69
2022/02/18 11:27:39;;;;;;;5.43;2.45;;;;;;;;;;4963743;28;20606;-70
2022/02/18 11:30:06;;;;;;;8.75;2.65;;;;;;;;;;4962736;28;20039;-69
2022/02/18 11:33:05;;;;;;;7.05;3.03;;;;;;;;;;4963782;28;20015;-69
2022/02/18 11:35:34;;;;;;;4.57;1.88;;;;;;;;;;4949734;28;20039;-69
2022/02/18 11:38:10;;;;;;;5.22;2.00;;;;;;;;;;4963543;28;20033;-69
2022/02/18 11:40:41;;;;;;;5.70;2.15;;;;;;;;;;4963470;28;20027;-70
2022/02/18 11:43:16;;;;;;;6.80;1.73;;;;;;;;;;4961695;28;20122;-69
2022/02/18 11:45:43;;;;;;;6.93;2.38;;;;;;;;;;4961662;28;20455;-69
2022/02/18 11:48:29;;;;;;;7.30;2.28;;;;;;;;;;4963032;28;20367;-69
2022/02/18 11:51:06;;;;;;;8.60;1.98;;;;;;;;;;4962963;28;20015;-70
2022/02/18 11:53:39;;;;;;;4.90;1.80;;;;;;;;;;4963136;28;20076;-73
2022/02/18 11:56:06;;;;;;;5.47;1.88;;;;;;;;;;4961952;28;20023;-70
2022/02/18 11:58:48;;;;;;;6.75;2.05;;;;;;;;;;4963313;28;20030;-69
2022/02/18 12:01:14;;;;;;;4.22;1.70;;;;;;;;;;4963209;28;20049;-69
2022/02/18 12:03:40;;;;;;;5.57;1.77;;;;;;;;;;4963124;28;20106;-69
2022/02/18 12:06:09;;;;;;;6.55;2.63;;;;;;;;;;4963198;28;20026;-69
2022/02/18 12:08:57;;;;;;;6.10;2.00;;;;;;;;;;4968476;28;20684;-68
2022/02/18 12:11:25;;;;;;;7.20;2.05;;;;;;;;;;4949975;28;20031;-67
2022/02/18 12:13:56;;;;;;;6.00;2.13;;;;;;;;;;4949741;28;20022;-66
2022/02/18 12:16:23;;;;;;;4.57;1.90;;;;;;;;;;4972417;28;20023;-69
2022/02/18 12:19:07;;;;;;;4.68;1.60;;;;;;;;;;4980605;28;20268;-73
2022/02/18 12:21:34;;;;;;;7.78;2.78;;;;;;;;;;4977701;28;20051;-72
2022/02/18 12:24:19;;;;;;;6.90;2.60;;;;;;;;;;4957179;28;20584;-68
2022/02/18 12:26:45;;;;;;;6.35;2.55;;;;;;;;;;4956512;28;20034;-68
2022/02/18 12:29:17;;;;;;;4.97;2.10;;;;;;;;;;4958291;28;20031;-67
2022/02/18 12:31:50;;;;;;;3.80;1.85;;;;;;;;;;4942045;29;20090;-69
2022/02/18 12:34:26;;;;;;;4.88;2.20;;;;;;;;;;4958744;28;20027;-67
2022/02/18 12:36:53;;;;;;;6.07;2.40;;;;;;;;;;4971766;28;20058;-67
2022/02/18 12:39:38;;;;;;;4.63;2.08;;;;;;;;;;4957361;28;20054;-71
2022/02/18 12:42:08;;;;;;;6.22;1.88;;;;;;;;;;4964356;28;20027;-70
2022/02/18 12:44:34;;;;;;;7.03;2.33;;;;;;;;;;4947321;28;20039;-70
2022/02/18 12:47:00;;;;;;;4.13;1.80;;;;;;;;;;4945316;29;20391;-68
2022/02/18 12:49:40;;;;;;;6.72;2.55;;;;;;;;;;4945780;28;20043;-67
2022/02/18 12:52:10;;;;;;;8.27;2.15;;;;;;;;;;4958914;28;20503;-68
2022/02/18 12:54:49;;;;;;;7.80;2.22;;;;;;;;;;4946197;28;20046;-71
2022/02/18 12:57:16;;;;;;;5.15;1.70;;;;;;;;;;4952273;28;20093;-67
2022/02/18 12:59:46;;;;;;;8.05;2.17;;;;;;;;;;4958354;28;20019;-68
2022/02/18 13:02:32;;;;;;;4.10;1.92;;;;;;;;;;4946781;28;20042;-69
2022/02/18 13:05:08;;;;;;;5.78;1.85;;;;;;;;;;4953789;28;20042;-70
2022/02/18 13:07:42;;;;;;;7.93;2.20;;;;;;;;;;4949834;28;20072;-73
2022/02/18 13:10:10;;;;;;;8.18;2.08;;;;;;;;;;4945444;28;20077;-69
2022/02/18 13:12:43;;;;;;;5.20;1.83;;;;;;;;;;4944520;28;20523;-73
2022/02/18 13:15:32;;;;;;;5.85;2.95;;;;;;;;;;4954101;28;20035;-68
2022/02/18 13:18:01;;;;;;;4.88;2.03;;;;;;;;;;4944939;28;20046;-68
2022/02/18 13:20:34;;;;;;;3.85;1.52;;;;;;;;;;4960970;28;20046;-73
2022/02/18 13:23:00;;;;;;;4.93;1.75;;;;;;;;;;4945916;28;21082;-68
2022/02/18 13:25:32;;;;;;;4.53;1.75;;;;;;;;;;4958135;28;20029;-68
2022/02/18 13:28:02;;;;;;;3.28;1.48;;;;;;;;;;4953543;28;20388;-71
2022/02/18 13:30:30;;;;;;;5.15;1.73;;;;;;;;;;4955746;28;20038;-73
2022/02/18 13:32:59;;;;;;;4.30;1.55;;;;;;;;;;4959643;28;20018;-68
2022/02/18 13:35:26;;;;;;;4.93;2.03;;;;;;;;;;4952941;28;20030;-68
2022/02/18 13:37:52;;;;;;;5.47;1.73;;;;;;;;;;4963040;28;20035;-68
2022/02/18 13:40:18;;;;;;;7.25;2.33;;;;;;;;;;4960208;28;20478;-69
2022/02/18 13:42:51;;;;;;;4.95;1.90;;;;;;;;;;4962295;28;20047;-68
2022/02/18 13:45:18;;;;;;;7.03;1.83;;;;;;;;;;4959461;28;20062;-68
2022/02/18 13:47:44;;;;;;;4.28;1.95;;;;;;;;;;4962747;28;20061;-68
2022/02/18 13:50:11;;;;;;;5.45;1.95;;;;;;;;;;4959329;28;20122;-68
2022/02/18 13:52:37;;;;;;;6.68;1.80;;;;;;;;;;4945287;28;20054;-70
2022/02/18 13:55:04;;;;;;;6.53;2.17;;;;;;;;;;4955780;28;20031;-68
2022/02/18 13:57:32;;;;;;;4.78;1.98;;;;;;;;;;4944728;28;20030;-69
2022/02/18 13:59:58;;;;;;;4.60;1.70;;;;;;;;;;4960179;28;20117;-73
2022/02/18 14:02:24;;;;;;;4.20;1.77;;;;;;;;;;4967904;28;20026;-68
2022/02/18 14:04:51;;;;;;;6.15;1.85;;;;;;;;;;4963638;28;20058;-69
2022/02/18 14:07:19;;;;;;;3.42;1.33;;;;;;;;;;4958913;28;20080;-74
2022/02/18 14:09:49;;;;;;;4.03;1.63;;;;;;;;;;4959746;28;20105;-69
2022/02/18 14:12:16;;;;;;;5.82;1.33;;;;;;;;;;4942641;29;20026;-68
2022/02/18 14:14:43;;;;;;;3.63;1.50;;;;;;;;;;4941809;28;20395;-68
2022/02/18 14:17:09;;;;;;;4.15;1.38;;;;;;;;;;4961606;28;20566;-78
2022/02/18 14:20:01;;;;;;;4.50;1.80;;;;;;;;;;4959592;28;20093;-69
2022/02/18 14:22:31;;;;;;;3.78;0.90;;;;;;;;;;4955125;28;20051;-69
2022/02/18 14:24:58;;;;;;;4.55;1.23;;;;;;;;;;4960113;28;20185;-68
2022/02/18 14:27:25;;;;;;;2.75;0.95;;;;;;;;;;4961646;28;20102;-72
2022/02/18 14:29:55;;;;;;;3.83;1.05;;;;;;;;;;4959767;28;20046;-69
2022/02/18 14:32:28;;;;;;;3.42;0.90;;;;;;;;;;4961671;28;20023;-68
2022/02/18 14:34:58;;;;;;;6.10;1.90;;;;;;;;;;4948183;28;20031;-68
2022/02/18 14:37:24;;;;;;;3.55;1.20;;;;;;;;;;4961509;28;20778;-68
2022/02/18 14:39:51;;;;;;;5.60;1.40;;;;;;;;;;4980680;28;20077;-69
2022/02/18 14:42:17;;;;;;;2.80;1.60;;;;;;;;;;4963060;28;20035;-69
2022/02/18 14:44:58;;;;;;;7.10;2.17;;;;;;;;;;4961341;28;20034;-68
2022/02/18 14:47:25;;;;;;;5.93;1.30;;;;;;;;;;4961529;28;20196;-73